createdAt,value
2019-02-28T00:02:28.732Z,3.70
2019-02-28T00:04:59.526Z,3.70
2019-02-28T00:07:30.280Z,3.60
2019-02-28T00:10:01.094Z,3.60
2019-02-28T00:12:33.429Z,3.60
2019-02-28T00:15:04.311Z,3.80
2019-02-28T00:17:35.255Z,3.60
2019-02-28T00:20:06.556Z,3.60
2019-02-28T00:25:18.994Z,3.60
2019-02-28T00:27:52.669Z,3.50
2019-02-28T00:30:22.231Z,3.50
2019-02-28T00:32:52.888Z,3.70
2019-02-28T00:35:23.648Z,3.60
2019-02-28T00:37:56.672Z,3.70
2019-02-28T00:40:27.128Z,3.70
2019-02-28T00:42:57.869Z,3.80
2019-02-28T00:45:28.691Z,4.00
2019-02-28T00:47:59.435Z,4.00
2019-02-28T00:50:30.243Z,4.10
2019-02-28T00:53:00.988Z,4.10
2019-02-28T00:55:32.086Z,4.20
2019-02-28T00:58:02.780Z,4.30
2019-02-28T01:00:37.204Z,4.30
2019-02-28T01:03:06.094Z,4.50
2019-02-28T01:05:37.305Z,4.50
2019-02-28T01:08:08.077Z,4.60
2019-02-28T01:10:39.266Z,4.80
2019-02-28T01:13:10.748Z,4.80
2019-02-28T01:15:44.889Z,4.90
2019-02-28T01:18:13.764Z,4.80
2019-02-28T01:20:47.538Z,4.80
2019-02-28T01:23:16.994Z,4.80
2019-02-28T01:25:47.778Z,4.80
2019-02-28T01:28:18.469Z,4.80
2019-02-28T01:30:49.267Z,4.90
2019-02-28T01:33:24.597Z,4.90
2019-02-28T01:35:52.548Z,4.90
2019-02-28T01:38:24.216Z,5.00
2019-02-28T01:40:55.974Z,4.90
2019-02-28T01:43:28.801Z,4.90
2019-02-28T01:45:59.381Z,4.90
2019-02-28T01:48:30.158Z,4.80
2019-02-28T01:51:01.733Z,4.80
2019-02-28T01:53:32.630Z,4.80
2019-02-28T01:56:03.444Z,4.80
2019-02-28T01:58:34.187Z,4.70
2019-02-28T02:01:04.784Z,4.80
2019-02-28T02:03:35.573Z,4.70
2019-02-28T02:06:06.381Z,4.70
2019-02-28T02:08:37.804Z,4.80
2019-02-28T02:11:09.348Z,4.80
2019-02-28T02:13:39.913Z,4.70
2019-02-28T02:16:10.737Z,4.80
2019-02-28T02:18:43.350Z,4.70
2019-02-28T02:21:14.055Z,4.70
2019-02-28T02:23:45.008Z,4.80
2019-02-28T02:26:15.848Z,4.80
2019-02-28T02:28:46.632Z,4.80
2019-02-28T02:31:17.363Z,4.80
2019-02-28T02:33:52.494Z,4.80
2019-02-28T02:36:20.385Z,4.80
2019-02-28T02:38:51.148Z,4.80
2019-02-28T02:41:21.945Z,4.90
2019-02-28T02:43:55.040Z,4.80
2019-02-28T02:46:25.261Z,4.90
2019-02-28T02:48:55.959Z,4.80
2019-02-28T02:51:26.730Z,4.80
2019-02-28T02:53:57.405Z,4.80
2019-02-28T02:56:28.204Z,4.80
2019-02-28T02:59:01.092Z,4.80
2019-02-28T03:01:31.711Z,4.80
2019-02-28T03:04:02.485Z,4.80
2019-02-28T03:06:33.484Z,4.80
2019-02-28T03:09:04.831Z,4.80
2019-02-28T03:11:36.157Z,4.80
2019-02-28T03:14:06.874Z,4.80
2019-02-28T03:16:37.662Z,4.80
2019-02-28T03:19:08.423Z,4.80
2019-02-28T03:21:39.231Z,4.80
2019-02-28T03:24:14.609Z,4.80
2019-02-28T03:26:43.413Z,4.70
2019-02-28T03:29:14.222Z,4.70
2019-02-28T03:31:55.222Z,4.60
2019-02-28T03:34:17.527Z,4.50
2019-02-28T03:36:55.228Z,4.50
2019-02-28T03:39:24.038Z,4.40
2019-02-28T03:41:54.268Z,4.40
2019-02-28T03:44:25.177Z,4.40
2019-02-28T03:46:56.275Z,4.40
2019-02-28T03:49:27.012Z,4.40
2019-02-28T03:52:05.428Z,4.40
2019-02-28T03:54:30.358Z,4.50
2019-02-28T03:57:01.250Z,4.40
2019-02-28T03:59:31.996Z,4.40
2019-02-28T04:02:02.823Z,4.40
2019-02-28T04:04:33.574Z,4.50
2019-02-28T04:07:04.425Z,4.50
2019-02-28T04:09:35.361Z,4.50
2019-02-28T04:12:08.689Z,4.50
2019-02-28T04:14:38.552Z,4.50
2019-02-28T04:17:09.388Z,4.60
2019-02-28T04:19:40.044Z,4.60
2019-02-28T04:22:10.874Z,4.60
2019-02-28T04:24:46.291Z,4.60
2019-02-28T04:27:14.242Z,4.60
2019-02-28T04:29:44.947Z,4.60
2019-02-28T04:32:15.818Z,4.60
2019-02-28T04:39:49.587Z,4.60
2019-02-28T04:42:20.394Z,4.50
2019-02-28T04:44:51.930Z,4.50
2019-02-28T04:47:23.376Z,4.50
2019-02-28T04:49:56.911Z,4.50
2019-02-28T04:52:26.569Z,4.40
2019-02-28T04:54:59.390Z,4.40
2019-02-28T04:57:29.572Z,4.40
2019-02-28T05:00:00.398Z,4.40
2019-02-28T05:02:31.277Z,4.40
2019-02-28T05:05:02.044Z,4.40
2019-02-28T05:07:32.958Z,4.30
2019-02-28T05:10:03.786Z,4.30
2019-02-28T05:12:36.302Z,4.30
2019-02-28T05:15:07.450Z,4.30
2019-02-28T05:17:38.320Z,4.20
2019-02-28T05:20:10.961Z,4.20
2019-02-28T05:22:42.740Z,4.20
2019-02-28T05:25:17.318Z,4.20
2019-02-28T05:27:45.856Z,4.30
2019-02-28T05:30:19.561Z,4.20
2019-02-28T05:32:48.849Z,4.30
2019-02-28T05:35:25.486Z,4.20
2019-02-28T05:37:52.295Z,4.30
2019-02-28T05:40:22.969Z,4.30
2019-02-28T05:42:54.727Z,4.30
2019-02-28T05:45:26.156Z,4.30
2019-02-28T05:47:57.068Z,4.30
2019-02-28T05:50:27.824Z,4.30
2019-02-28T05:52:58.612Z,4.30
2019-02-28T05:55:29.496Z,4.30
2019-02-28T05:58:00.488Z,4.40
2019-02-28T06:00:33.466Z,4.40
2019-02-28T06:03:03.608Z,4.40
2019-02-28T06:05:34.404Z,4.40
2019-02-28T06:08:05.048Z,4.40
2019-02-28T06:10:35.800Z,4.40
2019-02-28T06:13:06.649Z,4.40
2019-02-28T06:15:37.938Z,4.40
2019-02-28T06:18:08.905Z,4.40
2019-02-28T06:20:39.624Z,4.40
2019-02-28T06:23:10.472Z,4.40
2019-02-28T06:25:41.157Z,4.40
2019-02-28T06:28:12.074Z,4.40
2019-02-28T06:30:42.844Z,4.40
2019-02-28T06:33:13.542Z,4.40
2019-02-28T06:35:44.312Z,4.50
2019-02-28T06:38:16.245Z,4.50
2019-02-28T06:40:47.612Z,4.50
2019-02-28T06:43:19.487Z,4.60
2019-02-28T06:45:50.444Z,4.60
2019-02-28T06:48:25.915Z,4.60
2019-02-28T06:50:53.725Z,4.80
2019-02-28T06:53:24.519Z,4.80
2019-02-28T06:55:55.293Z,4.90
2019-02-28T06:58:26.285Z,5.00
2019-02-28T07:00:57.057Z,5.10
2019-02-28T07:03:28.990Z,5.20
2019-02-28T07:06:01.039Z,5.30
2019-02-28T07:08:32.185Z,5.50
2019-02-28T07:11:02.876Z,5.60
2019-02-28T07:13:38.993Z,5.80
2019-02-28T07:16:06.152Z,5.90
2019-02-28T07:18:37.076Z,5.90
2019-02-28T07:21:08.617Z,6.00
2019-02-28T07:23:40.389Z,6.10
2019-02-28T07:26:11.173Z,6.30
2019-02-28T07:28:41.970Z,6.40
2019-02-28T07:31:12.830Z,6.50
2019-02-28T07:33:44.582Z,6.50
2019-02-28T07:36:16.057Z,6.60
2019-02-28T07:38:46.843Z,6.70
2019-02-28T07:41:17.600Z,7.00
2019-02-28T07:43:48.303Z,7.00
2019-02-28T07:46:19.996Z,7.20
2019-02-28T07:48:50.808Z,7.20
2019-02-28T07:51:22.322Z,7.40
2019-02-28T07:53:53.899Z,7.50
2019-02-28T07:56:24.642Z,7.60
2019-02-28T07:58:55.467Z,7.70
2019-02-28T08:01:27.729Z,8.00
2019-02-28T08:03:58.864Z,8.00
2019-02-28T08:06:29.685Z,8.20
2019-02-28T08:09:01.745Z,8.40
2019-02-28T08:11:34.691Z,8.40
2019-02-28T08:14:05.613Z,8.30
2019-02-28T08:16:36.361Z,8.30
2019-02-28T08:19:07.269Z,8.40
2019-02-28T08:21:43.933Z,8.80
2019-02-28T08:24:10.679Z,8.70
2019-02-28T08:26:43.572Z,8.80
2019-02-28T08:29:14.092Z,8.90
2019-02-28T08:31:44.892Z,9.00
2019-02-28T08:34:15.748Z,8.80
2019-02-28T08:36:46.959Z,9.10
2019-02-28T08:39:18.257Z,9.10
2019-02-28T08:41:49.651Z,9.00
2019-02-28T08:44:23.789Z,9.20
2019-02-28T08:46:53.070Z,9.30
2019-02-28T08:49:24.068Z,9.50
2019-02-28T08:51:54.804Z,9.50
2019-02-28T08:54:27.253Z,9.80
2019-02-28T08:56:59.441Z,9.90
2019-02-28T08:59:30.249Z,9.90
2019-02-28T09:02:01.036Z,10.30
2019-02-28T09:04:40.748Z,10.40
2019-02-28T09:07:04.243Z,10.40
2019-02-28T09:09:35.350Z,10.50
2019-02-28T09:12:06.203Z,10.20
2019-02-28T09:14:36.993Z,10.10
2019-02-28T09:17:07.858Z,10.20
2019-02-28T09:19:38.674Z,10.40
2019-02-28T09:22:09.357Z,10.50
2019-02-28T09:24:40.278Z,10.60
2019-02-28T09:27:12.262Z,10.80
2019-02-28T09:29:43.153Z,10.90
2019-02-28T09:32:14.434Z,11.10
2019-02-28T09:34:45.449Z,11.30
2019-02-28T09:37:16.189Z,10.90
2019-02-28T09:39:47.038Z,10.70
2019-02-28T09:42:17.885Z,11.00
2019-02-28T09:44:48.967Z,11.30
2019-02-28T09:47:19.630Z,11.20
2019-02-28T09:49:50.487Z,11.40
2019-02-28T09:52:22.774Z,11.80
2019-02-28T09:54:56.355Z,12.20
2019-02-28T09:57:26.781Z,12.10
2019-02-28T09:59:57.843Z,12.30
2019-02-28T10:02:30.000Z,12.00
2019-02-28T10:05:03.001Z,12.10
2019-02-28T10:07:33.705Z,12.30
2019-02-28T10:10:04.406Z,12.10
2019-02-28T10:12:35.105Z,11.90
2019-02-28T10:15:07.435Z,12.10
2019-02-28T10:17:38.399Z,11.80
2019-02-28T10:20:12.059Z,11.60
2019-02-28T10:22:44.364Z,11.70
2019-02-28T10:25:16.175Z,11.70
2019-02-28T10:27:46.749Z,12.00
2019-02-28T10:30:28.223Z,12.00
2019-02-28T10:32:51.628Z,11.90
2019-02-28T10:35:22.382Z,12.10
2019-02-28T10:37:57.446Z,12.40
2019-02-28T10:40:26.016Z,12.70
2019-02-28T10:42:56.855Z,12.60
2019-02-28T10:45:28.206Z,12.10
2019-02-28T10:48:02.746Z,12.10
2019-02-28T10:50:33.379Z,11.90
2019-02-28T10:53:05.723Z,12.00
2019-02-28T10:55:36.517Z,12.30
2019-02-28T10:58:07.312Z,12.20
2019-02-28T11:00:40.817Z,12.30
2019-02-28T11:03:11.627Z,12.30
2019-02-28T11:05:43.311Z,12.20
2019-02-28T11:08:16.641Z,12.00
2019-02-28T11:10:47.007Z,11.90
2019-02-28T11:13:19.229Z,12.10
2019-02-28T11:15:50.188Z,12.00
2019-02-28T11:18:20.863Z,12.00
2019-02-28T11:20:51.666Z,11.90
2019-02-28T11:23:22.715Z,12.30
2019-02-28T11:25:53.653Z,12.30
2019-02-28T11:28:27.932Z,12.70
2019-02-28T11:30:57.005Z,12.90
2019-02-28T11:33:27.835Z,12.80
2019-02-28T11:35:59.409Z,12.60
2019-02-28T11:38:30.347Z,12.30
2019-02-28T11:41:01.341Z,12.20
2019-02-28T11:43:37.552Z,12.10
2019-02-28T11:46:04.734Z,12.10
2019-02-28T11:48:35.624Z,12.00
2019-02-28T11:51:06.408Z,11.90
2019-02-28T11:53:40.321Z,11.90
2019-02-28T11:56:09.826Z,12.00
2019-02-28T11:58:40.795Z,11.90
2019-02-28T12:01:11.709Z,12.20
2019-02-28T12:03:42.642Z,12.40
2019-02-28T12:06:13.493Z,12.30
2019-02-28T12:08:45.028Z,12.40
2019-02-28T12:11:16.554Z,12.40
2019-02-28T12:13:47.443Z,12.40
2019-02-28T12:16:19.321Z,12.10
2019-02-28T12:18:50.552Z,11.90
2019-02-28T12:21:21.439Z,12.00
2019-02-28T12:23:54.333Z,11.80
2019-02-28T12:26:25.781Z,11.80
2019-02-28T12:28:56.571Z,11.80
2019-02-28T12:31:27.358Z,11.40
2019-02-28T12:33:58.239Z,11.30
2019-02-28T12:36:29.010Z,11.50
2019-02-28T12:39:02.296Z,11.40
2019-02-28T12:41:33.850Z,11.50
2019-02-28T12:44:04.434Z,10.90
2019-02-28T12:46:35.241Z,10.60
2019-02-28T12:49:06.017Z,10.60
2019-02-28T12:51:39.678Z,10.30
2019-02-28T12:54:09.453Z,10.10
2019-02-28T12:56:40.294Z,10.20
2019-02-28T12:59:13.059Z,10.30
2019-02-28T13:01:43.739Z,10.30
2019-02-28T13:04:15.555Z,10.40
2019-02-28T13:06:46.445Z,10.30
2019-02-28T13:09:17.809Z,10.20
2019-02-28T13:11:48.598Z,10.40
2019-02-28T13:14:19.290Z,10.30
2019-02-28T13:16:50.037Z,10.10
2019-02-28T13:19:21.059Z,10.00
2019-02-28T13:21:52.134Z,10.10
2019-02-28T13:24:22.924Z,9.90
2019-02-28T13:26:53.630Z,9.70
2019-02-28T13:29:24.417Z,9.70
2019-02-28T13:31:57.679Z,9.50
2019-02-28T13:34:29.279Z,9.40
2019-02-28T13:37:02.847Z,9.40
2019-02-28T13:39:32.771Z,9.40
2019-02-28T13:42:04.323Z,9.40
2019-02-28T13:44:36.453Z,9.30
2019-02-28T13:47:09.674Z,9.30
2019-02-28T13:49:40.208Z,9.30
2019-02-28T13:52:14.984Z,9.20
2019-02-28T13:54:43.746Z,9.20
2019-02-28T13:57:14.910Z,9.20
2019-02-28T13:59:45.715Z,9.20
2019-02-28T14:02:16.501Z,9.30
2019-02-28T14:04:47.376Z,9.30
2019-02-28T14:07:18.134Z,9.20
2019-02-28T14:09:48.925Z,9.00
2019-02-28T14:12:20.757Z,8.90
2019-02-28T14:14:52.539Z,8.80
2019-02-28T14:17:23.333Z,8.80
2019-02-28T14:19:54.133Z,9.00
2019-02-28T14:22:25.036Z,8.80
2019-02-28T14:24:55.789Z,8.80
2019-02-28T14:27:27.749Z,8.80
2019-02-28T14:29:58.576Z,8.70
2019-02-28T14:32:29.398Z,8.50
2019-02-28T14:35:00.818Z,8.00
2019-02-28T14:37:32.104Z,7.80
2019-02-28T14:40:02.944Z,7.90
2019-02-28T14:42:33.652Z,7.80
2019-02-28T14:45:07.188Z,7.60
2019-02-28T14:47:37.209Z,7.60
2019-02-28T14:50:08.921Z,7.60
2019-02-28T14:52:40.422Z,7.50
2019-02-28T14:55:13.323Z,7.60
2019-02-28T14:57:44.169Z,7.50
2019-02-28T15:00:16.694Z,7.50
2019-02-28T15:02:47.745Z,7.40
2019-02-28T15:05:20.446Z,7.30
2019-02-28T15:07:51.002Z,7.30
2019-02-28T15:10:21.790Z,7.30
2019-02-28T15:12:55.317Z,7.20
2019-02-28T15:15:26.300Z,7.10
2019-02-28T15:17:57.219Z,7.20
2019-02-28T15:20:31.748Z,7.10
2019-02-28T15:23:00.735Z,7.20
2019-02-28T15:25:31.507Z,7.10
2019-02-28T15:28:02.330Z,7.10
2019-02-28T15:30:34.845Z,7.00
2019-02-28T15:33:05.685Z,7.00
2019-02-28T15:35:36.386Z,7.00
2019-02-28T15:38:09.104Z,7.00
2019-02-28T15:40:40.653Z,7.00
2019-02-28T15:43:17.008Z,7.10
2019-02-28T15:45:44.136Z,7.20
2019-02-28T15:48:14.932Z,7.10
2019-02-28T15:50:51.407Z,7.00
2019-02-28T15:53:18.352Z,7.00
2019-02-28T15:55:49.119Z,7.00
2019-02-28T15:58:20.172Z,7.00
2019-02-28T16:00:53.688Z,7.00
2019-02-28T16:03:23.650Z,7.00
2019-02-28T16:05:56.220Z,7.00
2019-02-28T16:08:28.317Z,6.80
2019-02-28T16:10:59.368Z,6.80
2019-02-28T16:13:30.272Z,6.80
2019-02-28T16:16:01.210Z,6.80
2019-02-28T16:18:32.141Z,6.80
2019-02-28T16:21:03.495Z,6.80
2019-02-28T16:23:36.450Z,6.80
2019-02-28T16:26:08.164Z,6.80
2019-02-28T16:28:39.475Z,6.80
2019-02-28T16:31:11.462Z,6.80
2019-02-28T16:33:42.369Z,6.70
2019-02-28T16:36:12.936Z,6.70
2019-02-28T16:38:45.069Z,6.70
2019-02-28T16:41:17.142Z,6.70
2019-02-28T16:43:47.992Z,6.70
2019-02-28T16:46:18.769Z,6.70
2019-02-28T16:48:49.736Z,6.70
2019-02-28T16:51:20.520Z,6.70
2019-02-28T16:53:53.173Z,6.70
2019-02-28T16:56:23.935Z,6.60
2019-02-28T16:58:57.277Z,6.70
2019-02-28T17:01:27.001Z,6.80
2019-02-28T17:04:00.321Z,6.80
2019-02-28T17:06:32.595Z,6.80
2019-02-28T17:09:14.869Z,6.70
2019-02-28T17:11:53.992Z,6.70
2019-02-28T17:14:24.851Z,6.70
2019-02-28T17:17:12.575Z,6.70
2019-02-28T17:19:43.497Z,6.70
2019-02-28T17:22:14.261Z,6.70
2019-02-28T17:24:46.085Z,6.80
2019-02-28T17:27:41.382Z,6.80
2019-02-28T17:30:35.688Z,6.80
2019-02-28T17:33:05.744Z,6.90
2019-02-28T17:35:37.946Z,6.80
2019-02-28T17:38:08.961Z,6.90
2019-02-28T17:40:39.697Z,6.90
2019-02-28T17:43:10.489Z,6.90
2019-02-28T17:45:41.112Z,7.00
2019-02-28T17:48:38.107Z,6.90
2019-02-28T17:51:25.657Z,6.90
2019-02-28T17:54:27.962Z,6.90
2019-02-28T17:57:35.250Z,6.90
2019-02-28T18:00:40.996Z,6.90
2019-02-28T18:04:01.607Z,6.90
2019-02-28T18:06:59.578Z,7.00
2019-02-28T18:09:56.527Z,7.00
2019-02-28T18:13:10.647Z,7.10
2019-02-28T18:15:50.436Z,7.10
2019-02-28T18:19:05.602Z,7.10
2019-02-28T18:22:16.126Z,7.10
2019-02-28T18:25:40.256Z,7.10
2019-02-28T18:28:39.142Z,7.10
2019-02-28T18:31:13.900Z,7.10
2019-02-28T18:33:52.224Z,7.10
2019-02-28T18:36:24.190Z,7.20
2019-02-28T18:38:55.072Z,7.10
2019-02-28T18:41:25.969Z,7.00
2019-02-28T18:44:00.063Z,6.90
2019-02-28T18:46:29.786Z,6.80
2019-02-28T18:49:01.649Z,6.70
2019-02-28T18:51:32.329Z,6.60
2019-02-28T18:54:03.254Z,6.60
2019-02-28T18:56:34.235Z,6.50
2019-02-28T18:59:05.133Z,6.50
2019-02-28T19:01:36.105Z,6.40
2019-02-28T19:04:06.879Z,6.40
2019-02-28T19:06:37.726Z,6.30
2019-02-28T19:09:20.004Z,6.30
2019-02-28T19:11:50.815Z,6.30
2019-02-28T19:14:22.853Z,6.30
2019-02-28T19:16:53.813Z,6.30
2019-02-28T19:19:24.618Z,6.30
2019-02-28T19:21:55.315Z,6.20
2019-02-28T19:24:26.148Z,6.20
2019-02-28T19:26:57.036Z,6.20
2019-02-28T19:29:27.763Z,6.20
2019-02-28T19:31:58.600Z,6.10
2019-02-28T19:34:29.405Z,6.10
2019-02-28T19:37:00.217Z,6.00
2019-02-28T19:39:31.288Z,5.90
2019-02-28T19:42:02.073Z,5.90
2019-02-28T19:44:32.880Z,5.90
2019-02-28T19:47:03.697Z,5.80
2019-02-28T19:49:34.308Z,5.70
2019-02-28T19:52:04.993Z,5.70
2019-02-28T19:54:35.772Z,5.60
2019-02-28T19:57:06.585Z,5.50
2019-02-28T19:59:37.363Z,5.50
2019-02-28T20:02:08.148Z,5.50
2019-02-28T20:04:38.816Z,5.40
2019-02-28T20:07:09.614Z,5.30
2019-02-28T20:09:40.589Z,5.30
2019-02-28T20:12:11.386Z,5.30
2019-02-28T20:14:42.494Z,5.30
2019-02-28T20:17:13.109Z,5.30
2019-02-28T20:19:43.995Z,5.30
2019-02-28T20:22:14.824Z,5.20
2019-02-28T20:24:45.720Z,5.20
2019-02-28T20:27:16.834Z,5.20
2019-02-28T20:29:54.926Z,5.20
2019-02-28T20:32:20.132Z,5.20
2019-02-28T20:34:50.993Z,5.20
2019-02-28T20:37:21.786Z,5.10
2019-02-28T20:39:52.588Z,5.10
2019-02-28T20:42:23.457Z,5.00
2019-02-28T20:44:54.366Z,5.10
2019-02-28T20:47:25.224Z,5.10
2019-02-28T20:49:56.006Z,5.00
2019-02-28T20:52:26.944Z,5.00
2019-02-28T20:54:57.776Z,5.10
2019-02-28T20:57:28.575Z,5.10
2019-02-28T20:59:59.483Z,5.10
2019-02-28T21:02:31.378Z,5.10
2019-02-28T21:05:02.266Z,5.10
2019-02-28T21:07:33.356Z,5.10
2019-02-28T21:10:05.356Z,5.10
2019-02-28T21:12:37.795Z,5.10
2019-02-28T21:15:09.208Z,5.10
2019-02-28T21:17:40.158Z,5.20
2019-02-28T21:20:12.279Z,5.20
2019-02-28T21:22:43.389Z,5.20
2019-02-28T21:25:14.261Z,5.20
2019-02-28T21:27:45.056Z,5.20
2019-02-28T21:30:25.249Z,5.20
2019-02-28T21:32:56.040Z,5.20
2019-02-28T21:35:26.933Z,5.20
2019-02-28T21:37:57.910Z,5.20
2019-02-28T21:40:28.608Z,5.20
2019-02-28T21:42:59.217Z,5.30
2019-02-28T21:45:30.064Z,5.30
2019-02-28T21:48:00.957Z,5.30
2019-02-28T21:50:32.034Z,5.40
2019-02-28T21:53:02.940Z,5.40
2019-02-28T21:55:33.704Z,5.40
2019-02-28T21:58:04.596Z,5.40
2019-02-28T22:00:35.383Z,5.40
2019-02-28T22:03:05.866Z,5.50
2019-02-28T22:05:36.772Z,5.50
2019-02-28T22:08:07.689Z,5.50
2019-02-28T22:10:38.501Z,5.40
2019-02-28T22:13:09.323Z,5.40
2019-02-28T22:15:39.984Z,5.30
2019-02-28T22:18:10.977Z,5.30
2019-02-28T22:20:41.780Z,5.30
2019-02-28T22:23:12.581Z,5.20
2019-02-28T22:25:43.229Z,5.20
2019-02-28T22:28:13.946Z,5.20
2019-02-28T22:33:56.108Z,5.20
2019-02-28T22:36:30.528Z,5.20
2019-02-28T22:39:01.400Z,5.20
2019-02-28T22:41:33.808Z,5.10
2019-02-28T22:44:04.497Z,5.10
2019-02-28T22:46:35.482Z,5.20
2019-02-28T22:49:06.161Z,5.20
2019-02-28T22:51:36.995Z,5.20
2019-02-28T22:54:07.748Z,5.20
2019-02-28T22:56:38.500Z,5.20
2019-02-28T22:59:09.228Z,5.30
2019-02-28T23:01:39.950Z,5.30
2019-02-28T23:04:10.861Z,5.30
2019-02-28T23:06:41.653Z,5.30
2019-02-28T23:09:12.437Z,5.30
2019-02-28T23:11:43.224Z,5.30
2019-02-28T23:14:14.018Z,5.30
2019-02-28T23:16:44.885Z,5.30
2019-02-28T23:19:15.584Z,5.30
2019-02-28T23:21:46.392Z,5.30
2019-02-28T23:24:17.266Z,5.30
2019-02-28T23:27:16.187Z,5.30
2019-02-28T23:30:00.419Z,5.30
2019-02-28T23:33:02.231Z,5.30
2019-02-28T23:35:41.112Z,5.30
2019-02-28T23:38:11.963Z,5.30
2019-02-28T23:40:42.540Z,5.20
2019-02-28T23:43:13.353Z,5.30
2019-02-28T23:45:44.049Z,5.20
2019-02-28T23:48:14.820Z,5.20
2019-02-28T23:50:45.576Z,5.20
2019-02-28T23:53:16.457Z,5.10
2019-02-28T23:55:47.357Z,5.10
2019-02-28T23:58:18.128Z,5.00
